Time;durP1;ratioP1;P1;durP2;ratioP2;P2;SDS_P1;SDS_P2;PMS_P1;PMS_P2;Temp;Humidity;BMP_temperature;BMP_pressure;BME280_temperature;BME280_humidity;BME280_pressure;Samples;Min_cycle;Max_cycle;Signal;HPM_P1;HPM_P2
2022/03/20 00:00:22;;;;;;;11.88;5.57;;;5.10;99.90;;;;;;5112339;28;20130;-65
2022/03/20 00:02:49;;;;;;;9.32;5.63;;;5.00;99.90;;;;;;5094186;28;20135;-63
2022/03/20 00:05:15;;;;;;;7.95;4.63;;;5.00;99.90;;;;;;5093871;28;20047;-64
2022/03/20 00:07:41;;;;;;;11.75;5.40;;;5.00;99.90;;;;;;5112324;28;20503;-63
2022/03/20 00:10:08;;;;;;;10.38;5.22;;;5.00;99.90;;;;;;5111326;28;20047;-63
2022/03/20 00:12:37;;;;;;;11.48;5.55;;;5.00;99.90;;;;;;5112222;28;20059;-63
2022/03/20 00:15:04;;;;;;;9.15;5.43;;;4.90;99.90;;;;;;5111756;28;20039;-64
2022/03/20 00:17:30;;;;;;;8.63;4.70;;;4.90;99.90;;;;;;5112120;28;20051;-64
2022/03/20 00:19:56;;;;;;;10.75;6.07;;;4.90;99.90;;;;;;5112118;28;20044;-64
2022/03/20 00:22:23;;;;;;;9.82;5.10;;;5.00;99.90;;;;;;5093712;28;20052;-64
2022/03/20 00:24:49;;;;;;;9.43;5.05;;;4.90;99.90;;;;;;5112130;28;20051;-64
2022/03/20 00:27:16;;;;;;;8.48;5.30;;;4.90;99.90;;;;;;5093631;28;20435;-64
2022/03/20 00:29:42;;;;;;;8.63;5.28;;;4.90;99.90;;;;;;5111762;28;20050;-64
2022/03/20 00:32:10;;;;;;;9.88;5.47;;;4.80;99.90;;;;;;5076671;28;20047;-63
2022/03/20 00:34:37;;;;;;;11.13;5.50;;;4.80;99.90;;;;;;5111811;28;20096;-63
2022/03/20 00:37:04;;;;;;;9.00;5.53;;;4.70;99.90;;;;;;5076702;28;20108;-64
2022/03/20 00:39:29;;;;;;;11.45;5.85;;;4.70;99.90;;;;;;5093525;28;20055;-66
2022/03/20 00:41:55;;;;;;;8.15;4.60;;;4.70;99.90;;;;;;5111541;28;20389;-64
2022/03/20 00:44:21;;;;;;;11.85;5.32;;;4.70;99.90;;;;;;5111397;28;20052;-63
2022/03/20 00:46:48;;;;;;;9.07;4.60;;;4.70;99.90;;;;;;5111560;28;20405;-65
2022/03/20 00:49:15;;;;;;;11.68;4.55;;;4.60;99.90;;;;;;5093436;28;20096;-63
2022/03/20 00:51:42;;;;;;;8.55;5.32;;;4.70;99.90;;;;;;5111727;28;20075;-64
2022/03/20 00:54:08;;;;;;;10.38;5.82;;;4.60;99.90;;;;;;5111179;28;20055;-64
2022/03/20 00:56:34;;;;;;;8.68;5.57;;;4.50;99.90;;;;;;5111613;28;20051;-63
2022/03/20 00:59:00;;;;;;;10.05;5.85;;;4.50;99.90;;;;;;5092959;28;20055;-66
2022/03/20 01:01:29;;;;;;;8.13;5.30;;;4.50;99.90;;;;;;5110888;28;20524;-64
2022/03/20 01:03:56;;;;;;;10.98;4.88;;;4.40;99.90;;;;;;5111544;28;20051;-66
2022/03/20 01:06:22;;;;;;;10.38;5.85;;;4.70;99.90;;;;;;5113574;28;20047;-63
2022/03/20 01:08:49;;;;;;;9.07;5.30;;;4.40;99.90;;;;;;5097265;28;20562;-64
2022/03/20 01:11:16;;;;;;;11.25;5.30;;;4.40;99.90;;;;;;5115282;28;20515;-64
2022/03/20 01:13:45;;;;;;;11.48;6.35;;;4.40;99.90;;;;;;5115606;28;20053;-66
2022/03/20 01:16:10;;;;;;;8.73;6.25;;;4.30;99.90;;;;;;5097455;28;20461;-69
2022/03/20 01:18:36;;;;;;;10.07;5.53;;;4.30;99.90;;;;;;5115505;28;20039;-64
2022/03/20 01:21:03;;;;;;;8.85;5.65;;;4.30;99.90;;;;;;5115615;28;20093;-64
2022/03/20 01:23:29;;;;;;;10.13;6.10;;;4.30;99.90;;;;;;5115098;28;20048;-65
2022/03/20 01:25:55;;;;;;;13.63;6.45;;;4.30;99.90;;;;;;5080422;28;20456;-64
2022/03/20 01:28:23;;;;;;;9.82;6.03;;;4.20;99.90;;;;;;5115407;28;20139;-64
2022/03/20 01:30:49;;;;;;;12.30;6.32;;;4.20;99.90;;;;;;5115328;28;20070;-63
2022/03/20 01:33:16;;;;;;;11.73;6.50;;;4.20;99.90;;;;;;5114805;28;20132;-63
2022/03/20 01:35:42;;;;;;;11.88;5.95;;;4.30;99.90;;;;;;5115313;28;20047;-65
2022/03/20 01:38:08;;;;;;;12.70;5.95;;;4.10;99.90;;;;;;5114997;28;20043;-64
2022/03/20 01:40:35;;;;;;;10.20;5.10;;;4.20;99.90;;;;;;5096530;28;20062;-64
2022/03/20 01:43:02;;;;;;;10.02;6.32;;;4.10;99.90;;;;;;5114900;28;20046;-64
2022/03/20 01:45:27;;;;;;;12.50;6.53;;;4.10;99.90;;;;;;5114533;28;20043;-64
2022/03/20 01:47:54;;;;;;;11.18;7.07;;;4.10;99.90;;;;;;5114912;28;20046;-64
2022/03/20 01:50:23;;;;;;;8.90;5.80;;;4.10;99.90;;;;;;5114303;28;20079;-64
2022/03/20 01:52:51;;;;;;;7.60;5.20;;;4.00;99.90;;;;;;5096180;28;20142;-64
2022/03/20 01:55:19;;;;;;;13.15;6.53;;;4.00;99.90;;;;;;5114588;28;20149;-65
2022/03/20 01:57:45;;;;;;;10.32;7.03;;;4.00;99.90;;;;;;5114421;28;20040;-66
2022/03/20 02:00:15;;;;;;;11.50;6.97;;;4.10;99.90;;;;;;5095875;28;20138;-74
2022/03/20 02:02:40;;;;;;;12.93;7.32;;;4.00;99.90;;;;;;5096316;28;20477;-64
2022/03/20 02:05:09;;;;;;;11.90;7.15;;;3.90;99.90;;;;;;5079745;28;20043;-64
2022/03/20 02:07:35;;;;;;;14.45;6.80;;;3.90;99.90;;;;;;5114412;28;20056;-65
2022/03/20 02:10:01;;;;;;;12.90;6.65;;;3.90;99.90;;;;;;5079771;28;20051;-64
2022/03/20 02:12:29;;;;;;;13.93;7.25;;;3.80;99.90;;;;;;5096026;28;20123;-65
2022/03/20 02:14:56;;;;;;;11.68;6.78;;;3.90;99.90;;;;;;5114385;28;20046;-63
2022/03/20 02:17:22;;;;;;;13.68;6.68;;;3.80;99.90;;;;;;5113537;28;20077;-65
2022/03/20 02:19:48;;;;;;;12.48;6.35;;;3.90;99.90;;;;;;5096241;28;20133;-63
2022/03/20 02:22:14;;;;;;;12.68;7.07;;;3.90;99.90;;;;;;5114530;28;20470;-68
2022/03/20 02:24:42;;;;;;;12.18;7.63;;;3.90;99.90;;;;;;5114136;28;20043;-64
2022/03/20 02:27:17;;;;;;;11.27;7.45;;;3.70;99.90;;;;;;5114138;28;20058;-63
2022/03/20 02:29:45;;;;;;;11.18;6.95;;;4.10;99.90;;;;;;5096277;28;20393;-64
2022/03/20 02:32:13;;;;;;;16.17;8.55;;;3.70;99.90;;;;;;5114306;28;20047;-64
2022/03/20 02:34:40;;;;;;;13.70;7.72;;;3.70;99.90;;;;;;5113818;28;20040;-65
2022/03/20 02:37:06;;;;;;;14.07;7.57;;;3.70;99.90;;;;;;5096136;28;20051;-64
2022/03/20 02:39:32;;;;;;;12.68;6.88;;;3.70;99.90;;;;;;5113602;28;20043;-64
2022/03/20 02:42:04;;;;;;;12.93;7.70;;;3.70;99.90;;;;;;5114160;28;20104;-65
2022/03/20 02:44:54;;;;;;;16.75;8.35;;;3.70;99.90;;;;;;5113608;28;20040;-63
2022/03/20 02:47:23;;;;;;;16.45;8.40;;;3.60;99.90;;;;;;5113510;28;20035;-63
2022/03/20 02:49:53;;;;;;;11.40;7.13;;;3.60;99.90;;;;;;5113755;28;20059;-64
2022/03/20 02:52:21;;;;;;;11.52;7.88;;;4.10;99.90;;;;;;5113190;28;20547;-64
2022/03/20 02:54:46;;;;;;;11.68;7.28;;;3.60;99.90;;;;;;5095759;28;20396;-63
2022/03/20 02:57:12;;;;;;;19.50;8.70;;;3.60;99.90;;;;;;5113757;28;20047;-63
2022/03/20 02:59:38;;;;;;;16.35;8.38;;;3.60;99.90;;;;;;5077817;28;20090;-65
2022/03/20 03:02:04;;;;;;;13.52;8.63;;;3.60;99.90;;;;;;5095403;28;20487;-63
2022/03/20 03:04:30;;;;;;;16.48;8.65;;;3.60;99.90;;;;;;5113091;28;20039;-63
2022/03/20 03:07:01;;;;;;;14.82;8.38;;;3.50;99.90;;;;;;5095359;28;20051;-63
2022/03/20 03:12:10;;;;;;;14.00;9.25;;;3.50;99.90;;;;;;5112660;28;20111;-64
2022/03/20 03:17:27;;;;;;;13.68;8.05;;;3.50;99.90;;;;;;5112739;28;20051;-64
2022/03/20 03:19:57;;;;;;;16.17;8.88;;;3.50;99.90;;;;;;5112995;28;20046;-64
2022/03/20 03:22:26;;;;;;;17.17;9.15;;;3.50;99.90;;;;;;5112551;28;20051;-72
2022/03/20 03:24:53;;;;;;;17.27;10.20;;;3.50;99.90;;;;;;5112868;28;20524;-66
2022/03/20 03:27:19;;;;;;;16.33;9.48;;;3.40;99.90;;;;;;5112548;28;20036;-67
2022/03/20 03:29:45;;;;;;;14.43;8.70;;;3.50;99.90;;;;;;5111802;28;20473;-65
2022/03/20 03:32:10;;;;;;;20.88;11.23;;;3.50;99.90;;;;;;5112894;28;20050;-65
2022/03/20 03:37:22;;;;;;;19.02;11.18;;;3.50;99.90;;;;;;5097219;28;20047;-65
2022/03/20 03:39:48;;;;;;;14.68;9.40;;;3.40;99.90;;;;;;5093951;28;20136;-64
2022/03/20 03:42:14;;;;;;;15.80;8.68;;;3.40;99.90;;;;;;5094059;28;20134;-68
2022/03/20 03:44:41;;;;;;;17.15;9.68;;;3.40;99.90;;;;;;5093875;28;20044;-65
2022/03/20 03:47:07;;;;;;;19.60;10.23;;;3.40;99.90;;;;;;5094409;28;20040;-65
2022/03/20 03:49:33;;;;;;;11.65;8.52;;;3.30;99.90;;;;;;5093222;28;20066;-64
2022/03/20 03:52:02;;;;;;;17.15;9.05;;;3.30;99.90;;;;;;5112397;28;20069;-67
2022/03/20 03:54:28;;;;;;;14.25;9.80;;;3.30;99.90;;;;;;5111091;28;20059;-72
2022/03/20 03:56:55;;;;;;;13.77;9.10;;;3.30;99.90;;;;;;5094356;28;20044;-65
2022/03/20 03:59:20;;;;;;;15.30;9.18;;;3.30;99.90;;;;;;5112213;28;20047;-65
2022/03/20 04:01:46;;;;;;;15.50;10.65;;;3.30;99.90;;;;;;5111752;28;20116;-64
2022/03/20 04:04:12;;;;;;;17.90;10.23;;;3.20;99.90;;;;;;5112091;28;20058;-64
2022/03/20 04:06:38;;;;;;;15.55;10.43;;;3.20;99.90;;;;;;5111554;28;20408;-63
2022/03/20 04:09:05;;;;;;;17.30;9.63;;;3.20;99.90;;;;;;5111693;28;20447;-63
2022/03/20 04:11:32;;;;;;;17.75;10.13;;;3.10;99.90;;;;;;5111657;28;20040;-70
2022/03/20 04:13:58;;;;;;;14.73;9.85;;;3.10;99.90;;;;;;5111867;28;20232;-66
2022/03/20 04:16:24;;;;;;;16.23;10.45;;;3.10;99.90;;;;;;5093571;28;20108;-64
2022/03/20 04:18:50;;;;;;;14.68;10.15;;;3.00;99.90;;;;;;5111599;28;20035;-63
2022/03/20 04:21:17;;;;;;;17.92;10.57;;;3.00;99.90;;;;;;5111918;28;20137;-63
2022/03/20 04:23:45;;;;;;;15.52;10.60;;;3.00;99.90;;;;;;5093393;28;20044;-63
2022/03/20 04:26:19;;;;;;;18.55;10.75;;;3.00;99.90;;;;;;5111724;28;20051;-65
2022/03/20 04:28:47;;;;;;;15.18;10.05;;;2.90;99.90;;;;;;5111154;28;20075;-64
2022/03/20 04:31:16;;;;;;;20.63;11.45;;;2.90;99.90;;;;;;5093497;28;20126;-65
2022/03/20 04:33:50;;;;;;;19.63;11.18;;;2.90;99.90;;;;;;5111152;28;20039;-64
2022/03/20 04:36:17;;;;;;;15.13;10.40;;;2.80;99.90;;;;;;5111660;28;20040;-65
2022/03/20 04:38:46;;;;;;;18.02;10.65;;;2.90;99.90;;;;;;5075850;28;20044;-64
2022/03/20 04:41:11;;;;;;;16.35;11.82;;;2.80;99.90;;;;;;5111805;28;20043;-65
2022/03/20 04:43:37;;;;;;;17.67;10.93;;;3.00;99.90;;;;;;5111243;28;20058;-64
2022/03/20 04:46:03;;;;;;;16.95;11.10;;;2.70;99.90;;;;;;5093118;28;20403;-64
2022/03/20 04:59:27;;;;;;;15.55;10.27;;;2.70;99.90;;;;;;5111291;28;20561;-64
2022/03/20 05:01:53;;;;;;;15.95;11.55;;;2.70;99.90;;;;;;5110939;28;20130;-64
2022/03/20 05:04:19;;;;;;;18.65;11.48;;;2.70;99.90;;;;;;5111536;28;20048;-64
2022/03/20 05:06:45;;;;;;;17.45;11.85;;;2.70;99.90;;;;;;5111080;28;20054;-65
2022/03/20 05:14:40;;;;;;;19.77;12.20;;;2.60;99.90;;;;;;5092927;28;20514;-66
2022/03/20 05:17:07;;;;;;;16.15;10.43;;;2.60;99.90;;;;;;5076495;28;20075;-65
2022/03/20 05:19:34;;;;;;;22.13;12.70;;;2.60;99.90;;;;;;5076142;28;20070;-65
2022/03/20 05:21:59;;;;;;;14.73;8.88;;;2.50;99.90;;;;;;5110955;28;20075;-64
2022/03/20 05:24:25;;;;;;;19.90;13.13;;;2.70;99.90;;;;;;5111223;28;20426;-64
2022/03/20 05:26:51;;;;;;;17.75;11.80;;;2.50;99.90;;;;;;5110801;28;20102;-64
2022/03/20 05:29:17;;;;;;;20.58;13.40;;;2.50;99.90;;;;;;5110964;28;20626;-64
2022/03/20 05:31:42;;;;;;;19.30;13.05;;;2.50;99.90;;;;;;5110815;28;20043;-66
2022/03/20 05:34:08;;;;;;;17.65;12.68;;;2.50;99.90;;;;;;5111035;28;20093;-63
2022/03/20 05:36:34;;;;;;;21.27;12.50;;;2.50;99.90;;;;;;5111081;28;20047;-64
2022/03/20 05:39:01;;;;;;;21.23;13.00;;;2.50;99.90;;;;;;5092367;28;20082;-64
2022/03/20 05:44:11;;;;;;;20.87;12.33;;;2.50;99.90;;;;;;5092987;28;20457;-64
2022/03/20 05:46:37;;;;;;;20.10;13.35;;;2.50;99.90;;;;;;5093008;28;20465;-65
2022/03/20 05:49:03;;;;;;;20.25;13.05;;;2.50;99.90;;;;;;5092360;28;20044;-64
2022/03/20 05:51:30;;;;;;;19.08;14.05;;;2.50;99.90;;;;;;5112049;28;20126;-63
2022/03/20 05:53:57;;;;;;;19.00;12.43;;;2.60;99.90;;;;;;5114210;28;20043;-64
2022/03/20 05:59:07;;;;;;;17.38;11.90;;;2.50;99.90;;;;;;5114276;28;20063;-65
2022/03/20 06:01:33;;;;;;;18.73;12.43;;;2.50;99.90;;;;;;5114517;28;20070;-64
2022/03/20 06:04:00;;;;;;;18.15;12.68;;;2.50;99.90;;;;;;5079181;28;20058;-65
2022/03/20 06:06:26;;;;;;;17.80;12.45;;;2.50;99.90;;;;;;5114621;28;20148;-64
2022/03/20 06:08:52;;;;;;;21.92;14.27;;;2.50;99.90;;;;;;5096112;28;20062;-64
2022/03/20 06:11:18;;;;;;;18.55;11.95;;;2.50;99.90;;;;;;5096196;28;20497;-64
2022/03/20 06:13:47;;;;;;;19.75;13.65;;;2.60;99.90;;;;;;5114348;28;20541;-71
2022/03/20 06:16:14;;;;;;;15.98;11.70;;;2.60;99.90;;;;;;5079704;28;20059;-64
2022/03/20 06:18:42;;;;;;;18.88;12.18;;;2.60;99.90;;;;;;5096037;28;20044;-64
2022/03/20 06:21:11;;;;;;;20.17;13.88;;;2.60;99.90;;;;;;5113943;28;20055;-64
2022/03/20 06:23:46;;;;;;;21.05;11.70;;;2.70;99.90;;;;;;5114212;28;20497;-64
2022/03/20 06:26:12;;;;;;;22.27;12.45;;;2.60;99.90;;;;;;5079404;28;20051;-64
2022/03/20 06:28:41;;;;;;;17.88;12.25;;;3.20;99.90;;;;;;5114079;28;20112;-64
2022/03/20 06:31:13;;;;;;;19.75;13.25;;;2.70;99.90;;;;;;5113775;28;20113;-63
2022/03/20 06:33:39;;;;;;;22.02;12.93;;;2.70;99.90;;;;;;5113926;28;20043;-65
2022/03/20 06:36:07;;;;;;;17.92;12.27;;;2.80;99.90;;;;;;5113467;28;20043;-64
2022/03/20 06:38:36;;;;;;;18.73;11.88;;;2.80;99.90;;;;;;5095820;28;20051;-64
2022/03/20 06:41:07;;;;;;;18.65;13.27;;;2.80;99.90;;;;;;5095595;28;20039;-63
2022/03/20 06:43:35;;;;;;;24.50;13.50;;;2.80;99.90;;;;;;5113764;28;20048;-63
2022/03/20 06:46:05;;;;;;;20.40;13.73;;;2.90;99.90;;;;;;5113658;28;20101;-64
2022/03/20 06:48:32;;;;;;;19.45;12.23;;;2.90;99.90;;;;;;5096310;28;20044;-64
2022/03/20 06:50:58;;;;;;;23.02;12.05;;;2.90;99.90;;;;;;5113308;28;20059;-65
2022/03/20 06:53:24;;;;;;;20.13;12.23;;;3.00;99.90;;;;;;5113263;28;20048;-66
2022/03/20 06:55:51;;;;;;;20.50;11.98;;;3.00;99.90;;;;;;5078566;28;20054;-72
2022/03/20 06:58:17;;;;;;;25.92;12.82;;;3.00;99.90;;;;;;5113494;28;20070;-66
2022/03/20 07:00:44;;;;;;;16.15;11.38;;;3.10;99.90;;;;;;5113668;28;20047;-64
2022/03/20 07:03:09;;;;;;;19.33;11.98;;;3.20;99.90;;;;;;5094682;28;20666;-65
2022/03/20 07:05:36;;;;;;;19.73;12.75;;;3.20;99.90;;;;;;5113434;28;20047;-67
2022/03/20 07:08:04;;;;;;;18.08;12.35;;;3.30;99.90;;;;;;5112832;28;20047;-65
2022/03/20 07:10:30;;;;;;;22.15;11.82;;;3.50;99.90;;;;;;5094820;28;20043;-65
2022/03/20 07:13:48;;;;;;;21.67;13.05;;;4.00;99.90;;;;;;5112469;28;20526;-65
2022/03/20 07:15:45;;;;;;;18.48;11.38;;;4.50;99.90;;;;;;5113089;28;20055;-65
2022/03/20 07:18:16;;;;;;;18.30;11.35;;;4.90;99.90;;;;;;5094203;28;20039;-65
2022/03/20 07:20:44;;;;;;;19.40;13.15;;;5.20;99.90;;;;;;5113226;28;20047;-65
2022/03/20 07:23:11;;;;;;;22.33;11.60;;;5.30;99.90;;;;;;5112545;28;20040;-64
2022/03/20 07:31:11;;;;;;;19.90;11.98;;;5.50;99.90;;;;;;5112605;28;20075;-64
2022/03/20 07:33:40;;;;;;;17.38;11.55;;;5.40;99.90;;;;;;5078031;28;20058;-65
2022/03/20 07:36:07;;;;;;;19.92;11.45;;;5.40;99.90;;;;;;5112207;28;20044;-64
2022/03/20 07:38:35;;;;;;;20.40;12.60;;;5.70;99.90;;;;;;5111739;28;20059;-64
2022/03/20 07:41:00;;;;;;;18.17;11.90;;;6.00;99.90;;;;;;5112147;28;20438;-64
2022/03/20 07:43:26;;;;;;;17.33;11.13;;;6.20;99.90;;;;;;5112527;28;20043;-66
2022/03/20 07:45:52;;;;;;;18.27;12.25;;;6.50;99.90;;;;;;5112356;28;20477;-66
2022/03/20 07:48:21;;;;;;;20.48;12.50;;;6.80;99.90;;;;;;5111875;28;20042;-65
2022/03/20 07:50:49;;;;;;;18.50;11.88;;;7.00;99.90;;;;;;5112425;28;20363;-65
2022/03/20 07:53:17;;;;;;;17.48;10.77;;;7.50;99.90;;;;;;5060331;28;20043;-65
2022/03/20 07:55:46;;;;;;;17.67;12.27;;;7.60;99.90;;;;;;5112178;28;20127;-64
2022/03/20 07:58:15;;;;;;;19.50;13.75;;;7.80;99.90;;;;;;5093294;28;20055;-64
2022/03/20 08:00:42;;;;;;;16.83;12.05;;;7.70;99.90;;;;;;5111959;28;20055;-64
2022/03/20 08:03:09;;;;;;;16.33;11.65;;;8.00;99.90;;;;;;5093743;28;20139;-64
2022/03/20 08:05:34;;;;;;;17.75;13.35;;;8.20;99.90;;;;;;5112236;28;20142;-64
2022/03/20 08:08:03;;;;;;;16.65;11.13;;;8.50;99.90;;;;;;5111660;28;20075;-71
2022/03/20 08:10:29;;;;;;;19.45;11.65;;;8.80;99.90;;;;;;5111995;28;20074;-64
2022/03/20 08:12:55;;;;;;;16.52;11.13;;;8.90;99.90;;;;;;5111914;28;20055;-64
2022/03/20 08:15:21;;;;;;;16.95;12.07;;;9.10;99.90;;;;;;5093031;28;20115;-64
2022/03/20 08:17:50;;;;;;;16.98;12.82;;;9.30;99.30;;;;;;5076952;28;20051;-65
2022/03/20 08:20:16;;;;;;;18.33;12.60;;;9.40;98.60;;;;;;5093564;28;20508;-64
2022/03/20 08:22:42;;;;;;;17.50;12.55;;;9.50;98.40;;;;;;5112175;28;20047;-65
2022/03/20 08:25:10;;;;;;;17.15;12.90;;;9.60;98.30;;;;;;5111499;28;20048;-63
2022/03/20 08:27:47;;;;;;;15.15;11.25;;;9.70;96.90;;;;;;5112260;28;20043;-66
2022/03/20 08:30:17;;;;;;;20.23;12.52;;;9.50;96.40;;;;;;5111615;28;20048;-65
2022/03/20 08:32:47;;;;;;;20.13;12.60;;;9.60;96.30;;;;;;5093652;28;20058;-66
2022/03/20 08:35:14;;;;;;;16.70;12.10;;;9.70;96.50;;;;;;5111284;28;20147;-65
2022/03/20 08:37:47;;;;;;;18.08;11.90;;;9.70;96.30;;;;;;5093139;28;20553;-65
2022/03/20 08:40:15;;;;;;;17.30;11.85;;;10.00;95.80;;;;;;5111596;28;20154;-65
2022/03/20 08:42:47;;;;;;;16.52;12.32;;;10.10;95.00;;;;;;5093567;28;20040;-63
2022/03/20 08:45:14;;;;;;;17.77;11.68;;;9.90;94.10;;;;;;5111534;28;20047;-64
2022/03/20 08:47:40;;;;;;;16.17;12.32;;;9.90;94.10;;;;;;5111533;28;20047;-63
2022/03/20 08:50:07;;;;;;;19.27;12.23;;;10.00;94.30;;;;;;5110881;28;20060;-65
2022/03/20 08:52:33;;;;;;;19.83;12.70;;;10.20;94.70;;;;;;5076751;28;20051;-64
2022/03/20 08:54:59;;;;;;;21.38;13.15;;;10.10;93.70;;;;;;5111373;28;20398;-65
2022/03/20 08:57:27;;;;;;;18.40;12.70;;;9.80;93.30;;;;;;5111275;28;20218;-63
2022/03/20 08:59:54;;;;;;;18.27;12.80;;;10.00;94.20;;;;;;5111240;28;20094;-64
2022/03/20 09:02:20;;;;;;;16.25;11.77;;;10.20;93.50;;;;;;5111075;28;20103;-64
2022/03/20 09:04:46;;;;;;;18.50;13.93;;;10.40;93.60;;;;;;5111444;28;20066;-63
2022/03/20 09:07:12;;;;;;;17.90;12.20;;;10.30;93.30;;;;;;5110842;28;20039;-64
2022/03/20 09:09:37;;;;;;;18.98;12.88;;;10.50;92.80;;;;;;5111237;28;20047;-65
2022/03/20 09:12:04;;;;;;;20.70;13.80;;;10.70;92.60;;;;;;5111326;28;20155;-65
2022/03/20 09:14:30;;;;;;;16.83;11.35;;;10.90;92.50;;;;;;5110957;28;20403;-64
2022/03/20 09:19:40;;;;;;;18.00;11.95;;;11.00;91.60;;;;;;5093000;28;20043;-64
2022/03/20 09:22:06;;;;;;;22.65;14.57;;;10.90;90.90;;;;;;5110970;28;20078;-64
2022/03/20 09:24:35;;;;;;;21.00;14.48;;;10.50;91.10;;;;;;5110583;28;20047;-65
2022/03/20 09:27:02;;;;;;;22.23;14.60;;;9.90;91.30;;;;;;5113255;28;20119;-64
2022/03/20 09:29:28;;;;;;;16.20;10.88;;;9.50;91.90;;;;;;5079390;28;20496;-63
2022/03/20 09:31:54;;;;;;;19.70;14.07;;;9.30;92.50;;;;;;5114976;28;20050;-65
2022/03/20 09:34:20;;;;;;;21.80;14.73;;;9.10;92.60;;;;;;5114756;28;20048;-64
2022/03/20 09:36:46;;;;;;;18.13;14.43;;;8.90;92.30;;;;;;5079901;28;20078;-63
2022/03/20 09:39:11;;;;;;;17.50;11.85;;;8.90;92.70;;;;;;5114667;28;20549;-65
2022/03/20 09:41:43;;;;;;;21.48;13.88;;;8.70;93.10;;;;;;5079942;28;20113;-64
2022/03/20 09:44:10;;;;;;;21.15;14.88;;;8.70;93.30;;;;;;5080152;28;20055;-67
2022/03/20 09:46:36;;;;;;;21.20;15.55;;;8.70;93.60;;;;;;5114525;28;20047;-65
2022/03/20 09:49:06;;;;;;;20.77;13.65;;;8.70;93.40;;;;;;5114651;28;20145;-64
2022/03/20 09:51:33;;;;;;;23.30;14.93;;;8.70;93.00;;;;;;5114543;28;20251;-63
2022/03/20 09:53:58;;;;;;;19.65;13.55;;;8.70;93.30;;;;;;5114359;28;20519;-66
2022/03/20 09:56:24;;;;;;;21.63;15.45;;;8.80;93.30;;;;;;5096068;28;20044;-65
2022/03/20 09:58:50;;;;;;;22.60;13.65;;;8.70;93.30;;;;;;5062153;28;20063;-64
2022/03/20 10:01:17;;;;;;;20.08;13.30;;;8.70;93.30;;;;;;5113897;28;20044;-63
2022/03/20 10:03:43;;;;;;;19.38;13.30;;;8.70;93.20;;;;;;5114566;28;20051;-64
2022/03/20 10:06:15;;;;;;;25.35;15.90;;;8.90;93.00;;;;;;5096475;28;20692;-65
2022/03/20 10:09:00;;;;;;;21.52;15.05;;;9.00;93.00;;;;;;5096293;28;20465;-64
2022/03/20 10:11:27;;;;;;;23.90;14.73;;;9.10;92.00;;;;;;5095745;28;20051;-64
2022/03/20 10:14:09;;;;;;;25.73;15.80;;;9.00;91.70;;;;;;5114174;28;20108;-63
2022/03/20 10:16:43;;;;;;;22.00;13.98;;;8.90;92.20;;;;;;5095611;28;20070;-63
2022/03/20 10:19:24;;;;;;;;;;;8.90;91.40;;;;;;5114752;28;20059;-64
2022/03/20 10:21:57;;;;;;;20.58;12.98;;;8.90;91.30;;;;;;5114309;28;19920;-66
2022/03/20 10:24:25;;;;;;;21.20;14.15;;;8.90;91.30;;;;;;5113708;28;20054;-64
2022/03/20 10:27:13;;;;;;;19.13;13.40;;;9.00;91.30;;;;;;5114006;28;20046;-65
2022/03/20 10:29:57;;;;;;;25.20;16.35;;;9.00;91.00;;;;;;5095664;28;20047;-64
2022/03/20 10:32:24;;;;;;;27.77;15.27;;;9.00;91.30;;;;;;5113617;28;20043;-65
2022/03/20 10:34:57;;;;;;;22.58;14.73;;;9.00;91.00;;;;;;5113886;28;20058;-64
2022/03/20 10:37:43;;;;;;;20.60;14.10;;;9.10;91.70;;;;;;5094377;28;20513;-64
2022/03/20 10:40:23;;;;;;;22.38;15.20;;;9.20;91.00;;;;;;5095806;28;20099;-63
2022/03/20 10:43:11;;;;;;;23.02;15.15;;;9.30;91.20;;;;;;5113670;28;20043;-63
2022/03/20 10:45:50;;;;;;;23.25;15.27;;;9.30;90.70;;;;;;5095188;28;20044;-63
2022/03/20 10:48:35;;;;;;;22.63;15.50;;;9.40;90.20;;;;;;5095163;28;20047;-66
2022/03/20 10:51:03;;;;;;;22.50;14.93;;;9.40;90.20;;;;;;5095578;28;20079;-63
2022/03/20 10:53:29;;;;;;;23.23;15.50;;;9.50;89.20;;;;;;5113217;28;20472;-64
2022/03/20 10:55:56;;;;;;;22.83;15.13;;;9.50;88.70;;;;;;5078533;28;20071;-65
2022/03/20 10:58:26;;;;;;;23.08;17.00;;;9.40;89.40;;;;;;5091176;28;20059;-65
2022/03/20 11:00:53;;;;;;;25.33;16.10;;;9.50;89.30;;;;;;5093480;28;20044;-65
2022/03/20 11:03:22;;;;;;;23.70;16.02;;;9.60;90.00;;;;;;5074958;28;20046;-71
2022/03/20 11:05:49;;;;;;;25.70;17.15;;;9.70;89.50;;;;;;5092944;28;20108;-65
2022/03/20 11:08:16;;;;;;;22.02;15.52;;;9.70;89.60;;;;;;5092979;28;20083;-65
2022/03/20 11:10:44;;;;;;;23.10;13.13;;;9.80;88.30;;;;;;5091622;28;20108;-68
2022/03/20 11:13:13;;;;;;;27.35;16.88;;;9.80;87.90;;;;;;5091591;28;20044;-66
2022/03/20 11:15:42;;;;;;;21.70;14.63;;;9.80;87.80;;;;;;5092500;28;20091;-63
2022/03/20 11:18:08;;;;;;;21.95;14.35;;;9.80;88.00;;;;;;5092608;28;20351;-63
2022/03/20 11:20:34;;;;;;;22.55;14.68;;;9.90;88.10;;;;;;5092265;28;20097;-64
2022/03/20 11:23:04;;;;;;;25.65;16.85;;;9.90;87.80;;;;;;5092532;28;20485;-63
2022/03/20 11:25:32;;;;;;;23.63;15.50;;;10.00;88.40;;;;;;5091087;28;20105;-63
2022/03/20 11:28:01;;;;;;;24.73;16.38;;;10.00;88.30;;;;;;5091716;28;20048;-63
2022/03/20 11:30:33;;;;;;;28.08;15.93;;;10.00;87.10;;;;;;5092198;28;20055;-64
2022/03/20 11:33:01;;;;;;;22.20;15.02;;;10.00;88.20;;;;;;5092538;28;20055;-63
2022/03/20 11:35:30;;;;;;;20.77;13.75;;;10.10;88.00;;;;;;5074221;28;20040;-64
2022/03/20 11:38:11;;;;;;;22.15;15.20;;;10.10;87.30;;;;;;5092228;28;20174;-63
2022/03/20 11:40:41;;;;;;;23.92;15.95;;;10.10;87.60;;;;;;5092106;28;20489;-64
2022/03/20 11:43:16;;;;;;;23.88;16.60;;;10.10;87.10;;;;;;5092493;28;20055;-63
2022/03/20 11:46:02;;;;;;;22.98;15.93;;;10.00;86.60;;;;;;5091839;28;20044;-63
2022/03/20 11:48:27;;;;;;;23.15;14.50;;;10.10;86.10;;;;;;5089633;28;20598;-66
2022/03/20 11:50:53;;;;;;;22.08;15.13;;;10.10;86.80;;;;;;5091820;28;20087;-64
2022/03/20 11:53:29;;;;;;;21.13;14.88;;;10.20;86.80;;;;;;5092213;28;20083;-63
2022/03/20 11:55:55;;;;;;;22.08;15.38;;;10.30;86.10;;;;;;5091084;28;20052;-63
2022/03/20 11:58:21;;;;;;;24.58;16.58;;;10.40;87.00;;;;;;5096049;28;20489;-67
2022/03/20 12:01:05;;;;;;;23.77;15.73;;;10.40;86.40;;;;;;5093848;28;20059;-63
2022/03/20 12:04:03;;;;;;;23.40;15.93;;;10.50;86.00;;;;;;5112000;28;20043;-63
2022/03/20 12:06:57;;;;;;;23.50;14.80;;;10.50;85.30;;;;;;5091606;28;20051;-70
2022/03/20 12:09:56;;;;;;;29.10;14.98;;;10.40;83.90;;;;;;5112201;28;20156;-64
2022/03/20 12:12:44;;;;;;;25.58;16.95;;;10.50;84.50;;;;;;5112080;28;20123;-63
2022/03/20 12:15:11;;;;;;;23.98;15.68;;;10.50;84.60;;;;;;5112128;28;20048;-64
2022/03/20 12:17:57;;;;;;;24.60;15.10;;;10.60;83.70;;;;;;5093355;28;20122;-63
2022/03/20 12:20:52;;;;;;;22.20;13.77;;;10.60;84.00;;;;;;5112027;28;20123;-63
2022/03/20 12:23:33;;;;;;;24.17;16.23;;;10.70;83.40;;;;;;5093904;28;20048;-63
2022/03/20 12:26:24;;;;;;;25.52;17.27;;;10.80;83.50;;;;;;5111745;28;20472;-64
2022/03/20 12:28:50;;;;;;;25.80;16.63;;;10.80;83.60;;;;;;5093364;28;20046;-64
2022/03/20 12:31:28;;;;;;;26.13;16.38;;;10.90;83.00;;;;;;5111711;28;20058;-62
2022/03/20 12:34:19;;;;;;;24.02;16.25;;;10.90;83.30;;;;;;5093232;28;20054;-64
2022/03/20 12:36:44;;;;;;;23.50;15.43;;;11.00;82.30;;;;;;5093177;28;20066;-63
2022/03/20 12:39:10;;;;;;;25.05;15.13;;;11.10;81.10;;;;;;5111635;28;20048;-64
2022/03/20 12:41:37;;;;;;;23.00;16.48;;;11.20;81.80;;;;;;5111040;28;20047;-64
2022/03/20 12:44:07;;;;;;;26.58;16.35;;;11.30;81.00;;;;;;5076515;28;20142;-65
2022/03/20 12:46:37;;;;;;;23.40;17.08;;;11.40;81.30;;;;;;5093036;28;20043;-71
2022/03/20 12:49:03;;;;;;;21.83;14.15;;;11.50;81.20;;;;;;5076166;28;20046;-65
2022/03/20 12:51:36;;;;;;;22.40;14.32;;;11.60;80.90;;;;;;5093041;28;20123;-65
2022/03/20 12:54:17;;;;;;;24.23;15.93;;;11.70;80.40;;;;;;5076414;28;20043;-66
2022/03/20 12:56:54;;;;;;;24.20;15.45;;;11.70;80.30;;;;;;5110661;28;20349;-65
2022/03/20 12:59:23;;;;;;;22.60;15.55;;;11.70;79.70;;;;;;5110590;28;20056;-65
2022/03/20 13:01:49;;;;;;;21.02;12.75;;;11.80;79.70;;;;;;5116444;28;20055;-63
2022/03/20 13:04:19;;;;;;;27.13;17.45;;;11.80;79.30;;;;;;5117604;28;20092;-63
2022/03/20 13:06:46;;;;;;;23.60;16.45;;;11.70;79.80;;;;;;5117844;28;20039;-64
2022/03/20 13:09:13;;;;;;;22.60;15.23;;;11.70;78.70;;;;;;5118059;28;20114;-65
2022/03/20 13:11:49;;;;;;;24.75;16.63;;;11.70;78.70;;;;;;5099736;28;20048;-69
2022/03/20 13:14:15;;;;;;;23.13;17.13;;;11.60;78.50;;;;;;5100124;28;20497;-66
2022/03/20 13:16:54;;;;;;;21.30;13.52;;;11.60;78.40;;;;;;5099483;28;20495;-64
2022/03/20 13:19:34;;;;;;;22.45;13.68;;;11.70;78.60;;;;;;5117843;28;20048;-64
2022/03/20 13:22:06;;;;;;;22.63;15.38;;;11.60;78.20;;;;;;5118088;28;20043;-64
2022/03/20 13:24:40;;;;;;;19.45;14.32;;;11.50;78.40;;;;;;5099576;28;20086;-64